Time;durP1;ratioP1;P1;durP2;ratioP2;P2;SDS_P1;SDS_P2;PMS_P1;PMS_P2;Temp;Humidity;BMP_temperature;BMP_pressure;BME280_temperature;BME280_humidity;BME280_pressure;Samples;Min_cycle;Max_cycle;Signal;HPM_P1;HPM_P2
2021/12/28 00:02:06;;;;;;;20.83;3.17;;;;;;;;;;5030832;28;20026;-75
2021/12/28 00:04:31;;;;;;;15.45;2.88;;;;;;;;;;5030806;28;20018;-74
2021/12/28 00:06:56;;;;;;;16.95;3.47;;;;;;;;;;5030534;28;20104;-76
2021/12/28 00:09:21;;;;;;;16.73;3.75;;;;;;;;;;5030798;28;20041;-76
2021/12/28 00:11:47;;;;;;;17.08;3.53;;;;;;;;;;5030682;28;20071;-75
2021/12/28 00:14:13;;;;;;;19.13;2.78;;;;;;;;;;5030279;28;20100;-76
2021/12/28 00:19:22;;;;;;;16.45;2.90;;;;;;;;;;5030809;28;20035;-75
2021/12/28 00:21:47;;;;;;;21.60;3.17;;;;;;;;;;5030225;28;20029;-75
2021/12/28 00:24:13;;;;;;;20.73;3.03;;;;;;;;;;5030598;28;20104;-75
2021/12/28 00:26:38;;;;;;;10.90;3.70;;;;;;;;;;5030303;28;20075;-75
2021/12/28 00:29:04;;;;;;;17.77;2.72;;;;;;;;;;5030181;28;20107;-75
2021/12/28 00:31:29;;;;;;;15.82;3.47;;;;;;;;;;5030324;28;20470;-75
2021/12/28 00:33:57;;;;;;;17.88;2.90;;;;;;;;;;5029595;28;20346;-75
2021/12/28 00:36:23;;;;;;;15.25;2.60;;;;;;;;;;5029004;28;20104;-75
2021/12/28 00:38:49;;;;;;;19.83;2.80;;;;;;;;;;5030274;28;20457;-74
2021/12/28 00:41:14;;;;;;;14.90;2.80;;;;;;;;;;5030770;28;20025;-74
2021/12/28 00:43:40;;;;;;;15.95;2.80;;;;;;;;;;5030465;28;20061;-75
2021/12/28 00:46:07;;;;;;;15.32;2.55;;;;;;;;;;5030269;28;20032;-75
2021/12/28 00:48:33;;;;;;;17.70;3.05;;;;;;;;;;5030198;28;20041;-74
2021/12/28 00:50:59;;;;;;;14.48;2.70;;;;;;;;;;5030195;28;20501;-75
2021/12/28 00:53:25;;;;;;;13.38;2.40;;;;;;;;;;5030101;28;20083;-74
2021/12/28 00:55:50;;;;;;;17.85;3.20;;;;;;;;;;5029889;28;20147;-75
2021/12/28 00:58:16;;;;;;;15.02;2.20;;;;;;;;;;5029824;28;20113;-75
2021/12/28 01:00:43;;;;;;;15.38;2.85;;;;;;;;;;5030023;28;20033;-75
2021/12/28 01:03:09;;;;;;;11.48;2.58;;;;;;;;;;5029729;28;20113;-75
2021/12/28 01:05:35;;;;;;;13.85;2.38;;;;;;;;;;5028537;28;20185;-75
2021/12/28 01:08:01;;;;;;;17.95;2.88;;;;;;;;;;5029253;28;20021;-74
2021/12/28 01:10:30;;;;;;;16.52;2.42;;;;;;;;;;5029643;28;20032;-75
2021/12/28 01:12:57;;;;;;;12.15;2.70;;;;;;;;;;5029659;28;20017;-74
2021/12/28 01:15:25;;;;;;;11.73;2.03;;;;;;;;;;5029404;28;20032;-75
2021/12/28 01:17:51;;;;;;;22.20;3.70;;;;;;;;;;5029372;28;20057;-74
2021/12/28 01:20:17;;;;;;;14.10;2.60;;;;;;;;;;5029713;28;20030;-75
2021/12/28 01:22:44;;;;;;;18.95;3.88;;;;;;;;;;5029149;28;20480;-75
2021/12/28 01:25:10;;;;;;;11.43;2.92;;;;;;;;;;5029323;28;20080;-75
2021/12/28 01:27:36;;;;;;;16.33;4.20;;;;;;;;;;5029197;28;20025;-75
2021/12/28 01:30:03;;;;;;;13.07;2.65;;;;;;;;;;5029420;28;20104;-75
2021/12/28 01:32:28;;;;;;;16.38;2.80;;;;;;;;;;5029632;28;20017;-74
2021/12/28 01:34:54;;;;;;;17.10;3.50;;;;;;;;;;5028628;28;20023;-75
2021/12/28 01:37:19;;;;;;;13.02;3.22;;;;;;;;;;5028279;28;20105;-75
2021/12/28 01:39:44;;;;;;;14.48;3.67;;;;;;;;;;5029363;28;20022;-75
2021/12/28 01:42:10;;;;;;;8.65;2.53;;;;;;;;;;5029228;28;20029;-75
2021/12/28 01:44:36;;;;;;;18.85;3.17;;;;;;;;;;5029013;28;20021;-75
2021/12/28 01:47:03;;;;;;;11.15;2.72;;;;;;;;;;5028597;28;20104;-75
2021/12/28 01:49:29;;;;;;;12.38;3.22;;;;;;;;;;5029704;28;20036;-75
2021/12/28 01:51:54;;;;;;;12.32;3.15;;;;;;;;;;5029029;28;20033;-73
2021/12/28 01:54:20;;;;;;;7.72;2.58;;;;;;;;;;5029107;28;20017;-75
2021/12/28 01:56:47;;;;;;;11.15;2.22;;;;;;;;;;5029049;28;20033;-75
2021/12/28 01:59:18;;;;;;;7.15;2.30;;;;;;;;;;5029038;28;20030;-76
2021/12/28 02:01:45;;;;;;;11.75;2.75;;;;;;;;;;5029345;28;20029;-74
2021/12/28 02:04:15;;;;;;;8.95;2.38;;;;;;;;;;5029061;28;20030;-75
2021/12/28 02:06:41;;;;;;;10.73;2.47;;;;;;;;;;5029138;28;20017;-74
2021/12/28 02:09:06;;;;;;;7.68;2.50;;;;;;;;;;5029385;28;20079;-74
2021/12/28 02:11:31;;;;;;;10.27;2.88;;;;;;;;;;5029300;28;20382;-75
2021/12/28 02:13:57;;;;;;;12.70;2.72;;;;;;;;;;5028644;28;20052;-75
2021/12/28 02:16:22;;;;;;;16.80;3.40;;;;;;;;;;5029210;28;20055;-74
2021/12/28 02:18:47;;;;;;;12.45;2.80;;;;;;;;;;5028866;28;20038;-75
2021/12/28 02:21:13;;;;;;;8.43;2.95;;;;;;;;;;5029285;28;20036;-72
2021/12/28 02:23:38;;;;;;;10.25;3.15;;;;;;;;;;5028901;28;20041;-75
2021/12/28 02:26:04;;;;;;;11.63;3.72;;;;;;;;;;5029059;28;20061;-74
2021/12/28 02:28:30;;;;;;;11.05;3.53;;;;;;;;;;5028538;28;20026;-73
2021/12/28 02:30:57;;;;;;;7.72;2.95;;;;;;;;;;5029053;28;20475;-75
2021/12/28 02:33:23;;;;;;;8.55;3.35;;;;;;;;;;5029075;28;20034;-74
2021/12/28 02:35:50;;;;;;;7.95;3.50;;;;;;;;;;5026348;28;20036;-73
2021/12/28 02:38:16;;;;;;;12.50;3.60;;;;;;;;;;5027590;28;20029;-74
2021/12/28 02:40:43;;;;;;;12.30;3.22;;;;;;;;;;5029049;28;20624;-73
2021/12/28 02:43:12;;;;;;;8.60;3.35;;;;;;;;;;5028576;28;20026;-73
2021/12/28 02:45:40;;;;;;;8.18;2.90;;;;;;;;;;5028521;28;20510;-73
2021/12/28 02:48:06;;;;;;;9.40;3.72;;;;;;;;;;5028380;28;20490;-73
2021/12/28 02:50:33;;;;;;;9.32;3.10;;;;;;;;;;5028477;28;20087;-73
2021/12/28 02:52:59;;;;;;;6.45;2.45;;;;;;;;;;5028770;28;20049;-73
2021/12/28 02:55:28;;;;;;;7.70;2.08;;;;;;;;;;5028548;28;20119;-73
2021/12/28 02:57:56;;;;;;;9.52;2.58;;;;;;;;;;5029216;28;20029;-73
2021/12/28 03:00:36;;;;;;;8.45;2.53;;;;;;;;;;5031961;28;20032;-73
2021/12/28 03:03:15;;;;;;;7.18;2.28;;;;;;;;;;5031784;28;20521;-73
2021/12/28 03:05:42;;;;;;;6.35;2.60;;;;;;;;;;5032021;28;20026;-73
2021/12/28 03:08:08;;;;;;;6.40;2.28;;;;;;;;;;5031811;28;20029;-72
2021/12/28 03:10:34;;;;;;;8.32;2.05;;;;;;;;;;5031999;28;20030;-72
2021/12/28 03:12:59;;;;;;;6.82;2.60;;;;;;;;;;5031712;28;20473;-72
2021/12/28 03:15:25;;;;;;;8.90;1.95;;;;;;;;;;5031431;28;20063;-71
2021/12/28 03:17:50;;;;;;;11.10;2.20;;;;;;;;;;5031633;28;20025;-71
2021/12/28 03:20:17;;;;;;;5.15;1.80;;;;;;;;;;5031821;28;20025;-72
2021/12/28 03:22:42;;;;;;;6.90;2.13;;;;;;;;;;5031684;28;20117;-71
2021/12/28 03:25:09;;;;;;;6.38;1.90;;;;;;;;;;5031579;28;20103;-71
2021/12/28 03:27:34;;;;;;;6.45;1.75;;;;;;;;;;5031621;28;20482;-71
2021/12/28 03:30:00;;;;;;;5.78;1.67;;;;;;;;;;5031540;28;20079;-71
2021/12/28 03:32:26;;;;;;;6.60;1.67;;;;;;;;;;5031663;28;20026;-71
2021/12/28 03:34:51;;;;;;;5.95;2.28;;;;;;;;;;5031092;28;20071;-71
2021/12/28 03:37:17;;;;;;;3.47;1.52;;;;;;;;;;5030813;28;20029;-71
2021/12/28 03:39:42;;;;;;;4.03;2.15;;;;;;;;;;5030565;28;20061;-71
2021/12/28 03:42:08;;;;;;;5.95;1.85;;;;;;;;;;5031546;28;20044;-71
2021/12/28 03:44:34;;;;;;;6.55;2.55;;;;;;;;;;5031320;28;20044;-71
2021/12/28 03:47:00;;;;;;;3.15;1.60;;;;;;;;;;5031288;28;20056;-71
2021/12/28 03:49:25;;;;;;;2.88;1.55;;;;;;;;;;5031014;28;20518;-71
2021/12/28 03:51:51;;;;;;;6.10;1.70;;;;;;;;;;5031243;28;20395;-71
2021/12/28 03:54:16;;;;;;;3.85;1.60;;;;;;;;;;5031135;28;20021;-71
2021/12/28 03:56:41;;;;;;;2.10;1.80;;;;;;;;;;5031034;28;20345;-71
2021/12/28 03:59:07;;;;;;;2.42;1.63;;;;;;;;;;5030751;28;20112;-71
2021/12/28 04:01:32;;;;;;;2.55;1.70;;;;;;;;;;5031345;28;20441;-71
2021/12/28 04:03:57;;;;;;;3.38;1.60;;;;;;;;;;5030523;28;20479;-71
2021/12/28 04:06:23;;;;;;;3.03;1.80;;;;;;;;;;5031077;28;20136;-71
2021/12/28 04:08:49;;;;;;;4.47;1.70;;;;;;;;;;5030264;28;20096;-71
2021/12/28 04:13:48;;;;;;;2.97;1.45;;;;;;;;;;5030621;28;20029;-71
2021/12/28 04:16:14;;;;;;;3.53;1.40;;;;;;;;;;5030632;28;20025;-71
2021/12/28 04:18:40;;;;;;;1.90;1.40;;;;;;;;;;5030309;28;20032;-71
2021/12/28 04:21:07;;;;;;;3.47;1.33;;;;;;;;;;5030736;28;20394;-72
2021/12/28 04:23:32;;;;;;;1.90;1.35;;;;;;;;;;5029380;28;20384;-71
2021/12/28 04:25:57;;;;;;;2.67;1.20;;;;;;;;;;5030316;28;20040;-71
2021/12/28 04:28:23;;;;;;;2.28;1.10;;;;;;;;;;5030210;28;20060;-71
2021/12/28 04:30:48;;;;;;;2.35;0.90;;;;;;;;;;5030397;28;20042;-71
2021/12/28 04:33:14;;;;;;;2.55;1.02;;;;;;;;;;5030304;28;20025;-71
2021/12/28 04:35:39;;;;;;;2.72;1.00;;;;;;;;;;5029967;28;20041;-71
2021/12/28 04:38:05;;;;;;;1.92;1.13;;;;;;;;;;5029331;28;20387;-70
2021/12/28 04:40:30;;;;;;;2.25;1.20;;;;;;;;;;5029023;28;20125;-71
2021/12/28 04:42:56;;;;;;;2.47;1.00;;;;;;;;;;5029840;28;20022;-71
2021/12/28 04:45:21;;;;;;;3.53;1.23;;;;;;;;;;5029784;28;20029;-70
2021/12/28 04:47:46;;;;;;;1.83;1.00;;;;;;;;;;5029916;28;20049;-71
2021/12/28 04:50:12;;;;;;;1.52;0.90;;;;;;;;;;5030076;28;20053;-71
2021/12/28 04:52:39;;;;;;;3.13;1.10;;;;;;;;;;5030166;28;20029;-71
2021/12/28 04:55:16;;;;;;;4.68;1.20;;;;;;;;;;5029818;28;20490;-70
2021/12/28 04:57:43;;;;;;;1.83;1.10;;;;;;;;;;5030177;28;20391;-71
2021/12/28 05:00:18;;;;;;;1.08;0.82;;;;;;;;;;5029687;28;20754;-71
2021/12/28 05:02:44;;;;;;;1.85;0.80;;;;;;;;;;5029812;28;20438;-71
2021/12/28 05:05:10;;;;;;;1.50;0.90;;;;;;;;;;5029586;28;20025;-71
2021/12/28 05:07:35;;;;;;;1.30;0.73;;;;;;;;;;5029659;28;20025;-71
2021/12/28 05:10:01;;;;;;;2.35;1.05;;;;;;;;;;5029356;28;20037;-71
2021/12/28 05:12:27;;;;;;;2.63;1.00;;;;;;;;;;5029916;28;20431;-71
2021/12/28 05:14:52;;;;;;;2.15;0.98;;;;;;;;;;5029427;28;20025;-71
2021/12/28 05:17:18;;;;;;;2.83;1.20;;;;;;;;;;5029761;28;20179;-71
2021/12/28 05:19:43;;;;;;;2.28;1.10;;;;;;;;;;5029293;28;20025;-71
2021/12/28 05:22:09;;;;;;;2.22;1.20;;;;;;;;;;5029146;28;20029;-71
2021/12/28 05:24:36;;;;;;;1.67;1.20;;;;;;;;;;5029683;28;20549;-72
2021/12/28 05:27:01;;;;;;;3.58;1.63;;;;;;;;;;5029263;28;20029;-71
2021/12/28 05:29:27;;;;;;;3.13;1.90;;;;;;;;;;5029373;28;20050;-71
2021/12/28 05:31:52;;;;;;;2.78;1.88;;;;;;;;;;5029548;28;20491;-72
2021/12/28 05:34:18;;;;;;;3.13;2.45;;;;;;;;;;5029065;28;20398;-72
2021/12/28 05:36:43;;;;;;;5.00;2.22;;;;;;;;;;5029046;28;20383;-71
2021/12/28 05:39:08;;;;;;;4.85;2.90;;;;;;;;;;5028921;28;20037;-71
2021/12/28 05:41:34;;;;;;;5.93;3.80;;;;;;;;;;5025562;28;20033;-71
2021/12/28 05:43:59;;;;;;;10.07;4.47;;;;;;;;;;5029270;28;20025;-71
2021/12/28 05:46:24;;;;;;;7.20;4.57;;;;;;;;;;5029715;28;20032;-71
2021/12/28 05:48:50;;;;;;;7.22;4.50;;;;;;;;;;5029137;28;20491;-72
2021/12/28 05:51:16;;;;;;;7.68;4.28;;;;;;;;;;5029151;28;20025;-71
2021/12/28 05:53:41;;;;;;;9.85;4.25;;;;;;;;;;5029262;28;20467;-71
2021/12/28 05:56:07;;;;;;;7.20;4.40;;;;;;;;;;5028584;28;20025;-71
2021/12/28 05:58:32;;;;;;;8.48;5.10;;;;;;;;;;5029099;28;20025;-72
2021/12/28 06:00:58;;;;;;;8.88;5.00;;;;;;;;;;5029284;28;20041;-72
2021/12/28 06:03:23;;;;;;;8.32;5.38;;;;;;;;;;5029134;28;20028;-72
2021/12/28 06:05:49;;;;;;;10.25;5.63;;;;;;;;;;5028864;28;20471;-71
2021/12/28 06:08:14;;;;;;;10.18;5.00;;;;;;;;;;5029033;28;20052;-72
2021/12/28 06:10:40;;;;;;;8.52;4.22;;;;;;;;;;5028695;28;20057;-72
2021/12/28 06:13:06;;;;;;;9.70;4.85;;;;;;;;;;5029194;28;20544;-72
2021/12/28 06:15:31;;;;;;;7.15;4.70;;;;;;;;;;5028978;28;20029;-71
2021/12/28 06:17:56;;;;;;;6.38;3.80;;;;;;;;;;5028791;28;20419;-72
2021/12/28 06:20:22;;;;;;;5.85;3.72;;;;;;;;;;5028886;28;20108;-72
2021/12/28 06:22:47;;;;;;;6.75;3.40;;;;;;;;;;5029035;28;20455;-73
2021/12/28 06:25:12;;;;;;;4.47;2.83;;;;;;;;;;5028776;28;20111;-73
2021/12/28 06:27:38;;;;;;;5.53;3.20;;;;;;;;;;5029053;28;20029;-73
2021/12/28 06:30:04;;;;;;;5.88;3.58;;;;;;;;;;5028880;28;20029;-73
2021/12/28 06:32:29;;;;;;;4.90;3.90;;;;;;;;;;5030563;28;20102;-73
2021/12/28 06:34:54;;;;;;;6.05;3.50;;;;;;;;;;5032562;28;20491;-73
2021/12/28 06:37:20;;;;;;;7.97;4.53;;;;;;;;;;5032448;28;20527;-74
2021/12/28 06:39:45;;;;;;;8.27;4.63;;;;;;;;;;5031676;28;20414;-73
2021/12/28 06:42:10;;;;;;;11.85;5.20;;;;;;;;;;5029818;28;20025;-74
2021/12/28 06:44:36;;;;;;;10.55;6.13;;;;;;;;;;5032315;28;20083;-73
2021/12/28 06:47:01;;;;;;;22.42;12.98;;;;;;;;;;5032199;28;20033;-73
2021/12/28 06:49:26;;;;;;;15.52;8.57;;;;;;;;;;5032784;28;20391;-73
2021/12/28 06:51:52;;;;;;;18.17;11.15;;;;;;;;;;5026498;28;20029;-73
2021/12/28 06:54:17;;;;;;;14.75;8.63;;;;;;;;;;5031637;28;20021;-73
2021/12/28 06:56:42;;;;;;;10.68;5.68;;;;;;;;;;5031943;28;20029;-74
2021/12/28 06:59:08;;;;;;;9.23;5.95;;;;;;;;;;5032376;28;20021;-73
2021/12/28 07:01:33;;;;;;;16.60;8.98;;;;;;;;;;5027184;28;20459;-73
2021/12/28 07:03:58;;;;;;;13.38;7.60;;;;;;;;;;5032111;28;20021;-73
2021/12/28 07:06:26;;;;;;;9.68;6.38;;;;;;;;;;5031946;28;20224;-72
2021/12/28 07:08:52;;;;;;;7.45;4.90;;;;;;;;;;5031517;28;20023;-72
2021/12/28 07:11:17;;;;;;;7.20;3.90;;;;;;;;;;5032413;28;20477;-73
2021/12/28 07:13:43;;;;;;;6.20;3.17;;;;;;;;;;5032430;28;20026;-73
2021/12/28 07:16:08;;;;;;;6.05;3.67;;;;;;;;;;5031804;28;20103;-73
2021/12/28 07:18:34;;;;;;;5.35;4.25;;;;;;;;;;5032132;28;20037;-74
2021/12/28 07:21:00;;;;;;;7.13;4.65;;;;;;;;;;5031388;28;20509;-73
2021/12/28 07:23:26;;;;;;;10.95;6.10;;;;;;;;;;5031925;28;20021;-74
2021/12/28 07:25:53;;;;;;;8.13;4.90;;;;;;;;;;5031571;28;20033;-73
2021/12/28 07:28:19;;;;;;;9.95;6.20;;;;;;;;;;5031966;28;20033;-73
2021/12/28 07:30:44;;;;;;;9.63;5.38;;;;;;;;;;5030449;28;20047;-73
2021/12/28 07:33:10;;;;;;;7.95;4.70;;;;;;;;;;5031510;28;20029;-74
2021/12/28 07:35:36;;;;;;;7.63;4.45;;;;;;;;;;5031550;28;20060;-74
2021/12/28 07:38:01;;;;;;;8.02;5.15;;;;;;;;;;5030516;28;20057;-74
2021/12/28 07:40:26;;;;;;;6.78;5.07;;;;;;;;;;5031230;28;20128;-74
2021/12/28 07:42:52;;;;;;;9.48;5.32;;;;;;;;;;5026640;28;20112;-73
2021/12/28 07:45:18;;;;;;;10.45;5.78;;;;;;;;;;5026232;28;20029;-74
2021/12/28 07:47:43;;;;;;;7.75;4.60;;;;;;;;;;5011283;28;20030;-74
2021/12/28 07:50:11;;;;;;;8.15;6.60;;;;;;;;;;5028138;28;20029;-74
2021/12/28 07:52:38;;;;;;;7.28;4.97;;;;;;;;;;5030355;28;20052;-73
2021/12/28 07:55:05;;;;;;;17.13;9.90;;;;;;;;;;5030914;28;20033;-72
2021/12/28 07:57:31;;;;;;;63.72;33.03;;;;;;;;;;5030466;28;20036;-73
2021/12/28 07:59:57;;;;;;;12.60;8.23;;;;;;;;;;5030930;28;20368;-73
2021/12/28 08:02:22;;;;;;;10.50;7.10;;;;;;;;;;5030109;28;20498;-72
2021/12/28 08:04:48;;;;;;;9.38;6.18;;;;;;;;;;5030776;28;20029;-73
2021/12/28 08:07:13;;;;;;;13.45;11.15;;;;;;;;;;5030112;28;20511;-73
2021/12/28 08:09:38;;;;;;;10.35;8.75;;;;;;;;;;5030680;28;20455;-73
2021/12/28 08:12:04;;;;;;;7.93;6.35;;;;;;;;;;5030658;28;20033;-74
2021/12/28 08:14:29;;;;;;;8.10;5.97;;;;;;;;;;5030721;28;20152;-73
2021/12/28 08:16:54;;;;;;;9.65;8.65;;;;;;;;;;5029343;28;20049;-73
2021/12/28 08:19:20;;;;;;;10.80;7.65;;;;;;;;;;5030569;28;20017;-73
2021/12/28 08:21:46;;;;;;;6.55;3.80;;;;;;;;;;5029954;28;20076;-73
2021/12/28 08:24:11;;;;;;;6.13;3.55;;;;;;;;;;5029706;28;20083;-73
2021/12/28 08:26:37;;;;;;;6.28;3.40;;;;;;;;;;5029696;28;20040;-74
2021/12/28 08:29:02;;;;;;;5.50;4.40;;;;;;;;;;5030210;28;20052;-73
2021/12/28 08:31:28;;;;;;;6.13;5.50;;;;;;;;;;5030206;28;20037;-73
2021/12/28 08:33:54;;;;;;;7.13;5.25;;;;;;;;;;5029773;28;20471;-74
2021/12/28 08:36:19;;;;;;;4.60;3.50;;;;;;;;;;5029622;28;20044;-73
2021/12/28 08:38:45;;;;;;;4.88;3.30;;;;;;;;;;5029896;28;20399;-74
2021/12/28 08:41:10;;;;;;;4.15;3.25;;;;;;;;;;5030407;28;20073;-75
2021/12/28 08:43:37;;;;;;;4.55;3.70;;;;;;;;;;5024775;28;20041;-73
2021/12/28 08:46:03;;;;;;;5.35;3.33;;;;;;;;;;5029495;28;20268;-73
2021/12/28 08:48:28;;;;;;;6.30;4.40;;;;;;;;;;5029514;28;20627;-73
2021/12/28 08:50:53;;;;;;;6.40;4.13;;;;;;;;;;5028281;28;20067;-73
2021/12/28 08:53:19;;;;;;;6.15;3.53;;;;;;;;;;5029149;28;20049;-74
2021/12/28 08:55:44;;;;;;;3.53;2.97;;;;;;;;;;5029633;28;20017;-73
2021/12/28 08:58:10;;;;;;;5.45;3.05;;;;;;;;;;5029551;28;20387;-73
2021/12/28 09:00:37;;;;;;;5.35;4.30;;;;;;;;;;5030116;28;20029;-74
2021/12/28 09:03:03;;;;;;;2.97;2.67;;;;;;;;;;5029366;28;20033;-73
2021/12/28 09:05:29;;;;;;;2.28;1.90;;;;;;;;;;5028975;28;20048;-73
2021/12/28 09:07:56;;;;;;;2.70;1.40;;;;;;;;;;5028700;28;20068;-73
2021/12/28 09:10:25;;;;;;;11.20;10.05;;;;;;;;;;5029066;28;20116;-73
2021/12/28 09:12:51;;;;;;;9.90;7.13;;;;;;;;;;5029075;28;20175;-73
2021/12/28 09:15:16;;;;;;;15.85;9.40;;;;;;;;;;5028015;28;20104;-73
2021/12/28 09:17:41;;;;;;;10.98;6.57;;;;;;;;;;5028519;28;20495;-73
2021/12/28 09:20:14;;;;;;;18.63;10.63;;;;;;;;;;5029215;28;20151;-73
2021/12/28 09:22:40;;;;;;;13.38;9.00;;;;;;;;;;5029152;28;20037;-73
2021/12/28 09:25:07;;;;;;;8.73;6.90;;;;;;;;;;5024819;28;20132;-73
2021/12/28 09:27:32;;;;;;;3.15;2.78;;;;;;;;;;5029397;28;20443;-73
2021/12/28 09:29:58;;;;;;;3.42;3.00;;;;;;;;;;5029074;28;20061;-74
2021/12/28 09:32:23;;;;;;;2.05;1.77;;;;;;;;;;5028573;28;20472;-74
2021/12/28 09:34:51;;;;;;;2.63;1.80;;;;;;;;;;5027663;28;20060;-74
2021/12/28 09:37:17;;;;;;;1.92;1.80;;;;;;;;;;5026595;28;20025;-73
2021/12/28 09:39:43;;;;;;;1.73;1.63;;;;;;;;;;5028490;28;20035;-74
2021/12/28 09:42:09;;;;;;;4.20;1.80;;;;;;;;;;5026683;28;20033;-73
2021/12/28 09:44:35;;;;;;;2.05;1.83;;;;;;;;;;5026264;28;20064;-73
2021/12/28 09:47:02;;;;;;;2.92;1.50;;;;;;;;;;5028697;28;20045;-73
2021/12/28 09:49:28;;;;;;;2.08;1.55;;;;;;;;;;5028857;28;20033;-73
2021/12/28 09:51:55;;;;;;;3.08;2.55;;;;;;;;;;5029425;28;20028;-73
2021/12/28 09:54:24;;;;;;;3.20;2.65;;;;;;;;;;5029145;28;20451;-73
2021/12/28 09:56:50;;;;;;;1.40;1.30;;;;;;;;;;5029109;28;20519;-73
2021/12/28 09:59:15;;;;;;;2.03;1.55;;;;;;;;;;5028880;28;20029;-73
2021/12/28 10:01:40;;;;;;;1.85;1.25;;;;;;;;;;5028958;28;20025;-74
2021/12/28 10:04:06;;;;;;;2.22;1.50;;;;;;;;;;5028672;28;20025;-73
2021/12/28 10:06:31;;;;;;;5.03;1.88;;;;;;;;;;5029328;28;20021;-74
2021/12/28 10:09:15;;;;;;;3.15;1.35;;;;;;;;;;5032729;28;20091;-73
2021/12/28 10:11:48;;;;;;;2.70;1.48;;;;;;;;;;5033009;28;20108;-73
2021/12/28 10:14:19;;;;;;;1.40;1.20;;;;;;;;;;5032642;28;20426;-73
2021/12/28 10:16:46;;;;;;;0.88;0.88;;;;;;;;;;5032720;28;20021;-74
2021/12/28 10:19:47;;;;;;;2.40;1.42;;;;;;;;;;5032680;28;20026;-73
2021/12/28 10:22:27;;;;;;;1.10;1.00;;;;;;;;;;4971060;28;20030;-74
2021/12/28 10:24:56;;;;;;;2.00;1.00;;;;;;;;;;5025225;28;20507;-74
2021/12/28 10:27:24;;;;;;;2.50;1.45;;;;;;;;;;5032363;28;20467;-73
2021/12/28 10:29:51;;;;;;;1.10;0.80;;;;;;;;;;5031210;28;20029;-73
2021/12/28 10:32:26;;;;;;;3.15;1.30;;;;;;;;;;5032621;28;20033;-73
2021/12/28 10:35:15;;;;;;;0.70;0.60;;;;;;;;;;5031772;28;20376;-73
2021/12/28 10:37:45;;;;;;;0.65;0.65;;;;;;;;;;5020258;28;20025;-73
2021/12/28 10:40:14;;;;;;;2.40;1.10;;;;;;;;;;5032205;28;20026;-73
2021/12/28 10:42:53;;;;;;;1.60;0.80;;;;;;;;;;5033038;28;20075;-72
2021/12/28 10:45:20;;;;;;;1.67;1.27;;;;;;;;;;5032192;28;20028;-73
2021/12/28 10:47:46;;;;;;;6.22;3.63;;;;;;;;;;5032311;28;20032;-72
2021/12/28 10:50:35;;;;;;;3.03;1.38;;;;;;;;;;5032313;28;20410;-73
2021/12/28 10:53:23;;;;;;;1.08;0.98;;;;;;;;;;5032347;28;20022;-74
2021/12/28 10:56:00;;;;;;;0.73;0.70;;;;;;;;;;5031240;28;20036;-73
2021/12/28 10:58:35;;;;;;;0.75;0.70;;;;;;;;;;5031605;28;20186;-74
2021/12/28 11:01:05;;;;;;;1.58;0.82;;;;;;;;;;5032259;28;20036;-73
2021/12/28 11:03:34;;;;;;;1.10;0.80;;;;;;;;;;5032014;28;20118;-74
2021/12/28 11:06:05;;;;;;;0.60;0.60;;;;;;;;;;5031948;28;20030;-73
2021/12/28 11:08:32;;;;;;;2.90;0.68;;;;;;;;;;5031578;28;20025;-73
2021/12/28 11:11:01;;;;;;;1.42;0.70;;;;;;;;;;5031676;28;20026;-71
2021/12/28 11:13:30;;;;;;;9.70;5.22;;;;;;;;;;5032162;28;20020;-74
2021/12/28 11:15:57;;;;;;;15.25;7.63;;;;;;;;;;5031926;28;20025;-72
2021/12/28 11:18:25;;;;;;;2.00;1.02;;;;;;;;;;5031522;28;20490;-74
2021/12/28 11:20:54;;;;;;;16.42;9.32;;;;;;;;;;5032365;28;20423;-73
2021/12/28 11:23:22;;;;;;;2.40;1.73;;;;;;;;;;5032300;28;20029;-74
2021/12/28 11:26:15;;;;;;;6.78;4.90;;;;;;;;;;5033167;28;20099;-74
2021/12/28 11:28:43;;;;;;;8.75;5.50;;;;;;;;;;5031532;28;20394;-73
2021/12/28 11:31:11;;;;;;;5.97;4.43;;;;;;;;;;5031978;28;20064;-71
2021/12/28 11:34:03;;;;;;;21.20;14.27;;;;;;;;;;5031561;28;20029;-71
2021/12/28 11:36:36;;;;;;;7.78;5.00;;;;;;;;;;5010564;28;20030;-73
2021/12/28 11:39:05;;;;;;;3.40;3.08;;;;;;;;;;5012425;28;20484;-73
2021/12/28 11:41:31;;;;;;;2.97;2.00;;;;;;;;;;5012354;28;20041;-73
2021/12/28 11:43:57;;;;;;;2.20;1.52;;;;;;;;;;5012320;28;20032;-72
2021/12/28 11:46:23;;;;;;;1.75;1.10;;;;;;;;;;5012802;28;20024;-73
2021/12/28 11:48:49;;;;;;;2.42;1.10;;;;;;;;;;5012290;28;20088;-72
2021/12/28 11:51:14;;;;;;;4.15;0.82;;;;;;;;;;5011763;28;20033;-72
2021/12/28 11:53:46;;;;;;;1.60;0.90;;;;;;;;;;5011617;28;20065;-72
2021/12/28 11:56:13;;;;;;;3.25;0.80;;;;;;;;;;5012825;28;20479;-72
2021/12/28 11:59:03;;;;;;;4.50;1.58;;;;;;;;;;5012106;28;20116;-73
2021/12/28 12:01:48;;;;;;;2.58;0.80;;;;;;;;;;5012093;28;20033;-77
2021/12/28 12:04:31;;;;;;;4.20;1.35;;;;;;;;;;5011828;28;20156;-75
2021/12/28 12:07:12;;;;;;;3.17;1.00;;;;;;;;;;5010113;28;20116;-74
2021/12/28 12:09:50;;;;;;;4.55;0.90;;;;;;;;;;5011887;28;20079;-75
2021/12/28 12:12:18;;;;;;;4.82;1.30;;;;;;;;;;5017152;28;20021;-75
2021/12/28 12:14:50;;;;;;;4.50;1.02;;;;;;;;;;5031393;28;20025;-75
2021/12/28 12:17:27;;;;;;;3.13;1.00;;;;;;;;;;5029807;28;20124;-74
2021/12/28 12:19:54;;;;;;;3.40;0.95;;;;;;;;;;5031744;28;20021;-79
2021/12/28 12:22:45;;;;;;;5.00;1.17;;;;;;;;;;5031416;28;20103;-78
2021/12/28 12:25:17;;;;;;;4.00;1.05;;;;;;;;;;5030798;28;20108;-75
2021/12/28 12:27:48;;;;;;;4.28;1.13;;;;;;;;;;5030795;28;20068;-74
2021/12/28 12:30:27;;;;;;;5.43;1.10;;;;;;;;;;5030695;28;20035;-74
2021/12/28 12:32:55;;;;;;;5.55;1.45;;;;;;;;;;5030999;28;20079;-75
2021/12/28 12:35:35;;;;;;;3.15;0.95;;;;;;;;;;5030885;28;20049;-76
2021/12/28 12:38:26;;;;;;;4.15;1.17;;;;;;;;;;5030794;28;20602;-75
2021/12/28 12:40:58;;;;;;;2.63;0.98;;;;;;;;;;5030536;28;20029;-73
2021/12/28 12:43:37;;;;;;;5.73;1.90;;;;;;;;;;5030661;28;20075;-75
2021/12/28 12:46:28;;;;;;;5.40;2.33;;;;;;;;;;5030242;28;20087;-75
2021/12/28 12:48:53;;;;;;;6.13;1.70;;;;;;;;;;5030671;28;20025;-76
2021/12/28 12:51:19;;;;;;;5.00;1.85;;;;;;;;;;5028822;28;20032;-75
2021/12/28 12:53:46;;;;;;;6.32;1.63;;;;;;;;;;5030751;28;20028;-73
2021/12/28 12:56:12;;;;;;;4.30;1.30;;;;;;;;;;5030060;28;20032;-74
2021/12/28 12:58:45;;;;;;;10.23;2.80;;;;;;;;;;5030190;28;20135;-75
2021/12/28 13:01:40;;;;;;;10.80;3.45;;;;;;;;;;5029835;28;20026;-75
2021/12/28 13:04:24;;;;;;;6.32;2.08;;;;;;;;;;5028034;28;20037;-74
2021/12/28 13:07:01;;;;;;;8.82;2.42;;;;;;;;;;5029363;28;20487;-74
2021/12/28 13:09:28;;;;;;;13.27;2.83;;;;;;;;;;5030415;28;20083;-76
2021/12/28 13:11:53;;;;;;;10.38;2.40;;;;;;;;;;5028306;28;20036;-74
2021/12/28 13:14:19;;;;;;;6.30;1.95;;;;;;;;;;5029595;28;20029;-77
2021/12/28 13:17:01;;;;;;;9.23;2.70;;;;;;;;;;5029619;28;20155;-74
2021/12/28 13:19:27;;;;;;;9.85;1.70;;;;;;;;;;5029528;28;20041;-75
2021/12/28 13:22:02;;;;;;;16.17;2.72;;;;;;;;;;5029337;28;20391;-75
2021/12/28 13:24:29;;;;;;;12.77;2.10;;;;;;;;;;5029432;28;20391;-74
2021/12/28 13:27:00;;;;;;;7.55;1.77;;;;;;;;;;5029306;28;20072;-75
2021/12/28 13:29:35;;;;;;;8.18;1.80;;;;;;;;;;5029284;28;20120;-74
2021/12/28 13:32:28;;;;;;;6.97;1.83;;;;;;;;;;5029492;28;20033;-74
2021/12/28 13:35:23;;;;;;;11.23;2.28;;;;;;;;;;5027234;28;20399;-74
2021/12/28 13:37:54;;;;;;;10.20;1.80;;;;;;;;;;5029082;28;20456;-76
2021/12/28 13:40:30;;;;;;;6.30;1.55;;;;;;;;;;5029744;28;20104;-75
2021/12/28 13:42:58;;;;;;;10.95;2.08;;;;;;;;;;5028388;28;20080;-76
2021/12/28 13:45:32;;;;;;;10.23;2.00;;;;;;;;;;5027795;28;20507;-74
2021/12/28 13:47:59;;;;;;;12.15;1.85;;;;;;;;;;5029238;28;20093;-74
2021/12/28 13:50:25;;;;;;;13.40;2.33;;;;;;;;;;5029524;28;20228;-74
2021/12/28 13:52:57;;;;;;;11.38;2.30;;;;;;;;;;5029122;28;20020;-75
2021/12/28 13:55:25;;;;;;;18.45;1.60;;;;;;;;;;5029640;28;20033;-76
2021/12/28 13:57:51;;;;;;;6.10;1.80;;;;;;;;;;5029064;28;20483;-74
2021/12/28 14:00:25;;;;;;;6.28;1.85;;;;;;;;;;5029004;28;20031;-75
2021/12/28 14:02:59;;;;;;;11.25;2.38;;;;;;;;;;5029250;28;20018;-73
2021/12/28 14:05:26;;;;;;;7.95;1.80;;;;;;;;;;5029275;28;20025;-75
2021/12/28 14:07:52;;;;;;;7.13;1.30;;;;;;;;;;5027745;28;20031;-73
2021/12/28 14:10:17;;;;;;;6.03;2.10;;;;;;;;;;5029298;28;20487;-74
2021/12/28 14:12:59;;;;;;;2.28;1.15;;;;;;;;;;5029213;28;20049;-75
2021/12/28 14:15:25;;;;;;;2.90;1.00;;;;;;;;;;5027539;28;20528;-73
2021/12/28 14:17:50;;;;;;;4.93;1.05;;;;;;;;;;5028824;28;20061;-72
2021/12/28 14:20:15;;;;;;;3.50;0.70;;;;;;;;;;5028861;28;20492;-75
2021/12/28 14:22:49;;;;;;;6.38;1.42;;;;;;;;;;5028393;28;20029;-72
2021/12/28 14:25:15;;;;;;;6.65;2.38;;;;;;;;;;5029124;28;20030;-74
2021/12/28 14:27:40;;;;;;;5.55;2.15;;;;;;;;;;5029062;28;20560;-72
2021/12/28 14:30:15;;;;;;;6.72;1.92;;;;;;;;;;5029625;28;20064;-75
2021/12/28 14:32:46;;;;;;;3.80;0.90;;;;;;;;;;5029836;28;20463;-75
2021/12/28 14:35:13;;;;;;;5.30;1.88;;;;;;;;;;5028754;28;20483;-72
2021/12/28 14:37:42;;;;;;;5.97;1.00;;;;;;;;;;5028056;28;20049;-76
2021/12/28 14:40:14;;;;;;;9.35;2.85;;;;;;;;;;5029431;28;20029;-73
2021/12/28 14:42:40;;;;;;;12.57;2.70;;;;;;;;;;5028654;28;20037;-72
2021/12/28 14:45:17;;;;;;;9.68;1.80;;;;;;;;;;5028755;28;20025;-74
2021/12/28 14:47:44;;;;;;;8.57;2.22;;;;;;;;;;5028749;28;20108;-73
2021/12/28 14:50:24;;;;;;;12.77;2.25;;;;;;;;;;5027414;28;20028;-72